sensor_id;sensor_type;location;lat;lon;timestamp;pressure;altitude;pressure_sealevel;temperature;humidity
77662;BME280;69666;52.136;5.424;2023-07-20T00:01:35;101575.75;;;18.12;100.00
77662;BME280;69666;52.136;5.424;2023-07-20T00:04:02;101574.97;;;18.10;100.00
77662;BME280;69666;52.136;5.424;2023-07-20T00:06:28;101578.78;;;18.06;100.00
77662;BME280;69666;52.136;5.424;2023-07-20T00:08:55;101568.97;;;18.05;100.00
77662;BME280;69666;52.136;5.424;2023-07-20T00:11:26;101575.22;;;18.05;100.00
77662;BME280;69666;52.136;5.424;2023-07-20T00:13:53;101575.38;;;18.02;100.00
77662;BME280;69666;52.136;5.424;2023-07-20T00:16:19;101579.44;;;17.94;100.00
77662;BME280;69666;52.136;5.424;2023-07-20T00:18:47;101571.44;;;17.92;100.00
77662;BME280;69666;52.136;5.424;2023-07-20T00:21:14;101563.50;;;17.89;100.00
77662;BME280;69666;52.136;5.424;2023-07-20T00:23:40;101571.66;;;17.87;100.00
77662;BME280;69666;52.136;5.424;2023-07-20T00:26:07;101575.56;;;17.82;100.00
77662;BME280;69666;52.136;5.424;2023-07-20T00:28:33;101572.97;;;17.80;100.00
77662;BME280;69666;52.136;5.424;2023-07-20T00:31:00;101576.59;;;17.79;100.00
77662;BME280;69666;52.136;5.424;2023-07-20T00:33:27;101575.78;;;17.77;100.00
77662;BME280;69666;52.136;5.424;2023-07-20T00:35:54;101575.78;;;17.77;100.00
77662;BME280;69666;52.136;5.424;2023-07-20T00:38:20;101577.63;;;17.77;100.00
77662;BME280;69666;52.136;5.424;2023-07-20T00:40:50;101574.13;;;17.75;100.00
77662;BME280;69666;52.136;5.424;2023-07-20T00:43:17;101568.06;;;17.71;100.00
77662;BME280;69666;52.136;5.424;2023-07-20T00:45:44;101567.34;;;17.68;100.00
77662;BME280;69666;52.136;5.424;2023-07-20T00:48:13;101572.94;;;17.63;100.00
77662;BME280;69666;52.136;5.424;2023-07-20T00:50:42;101570.53;;;17.57;100.00
77662;BME280;69666;52.136;5.424;2023-07-20T00:53:09;101573.47;;;17.52;100.00
77662;BME280;69666;52.136;5.424;2023-07-20T00:55:36;101576.34;;;17.49;100.00
77662;BME280;69666;52.136;5.424;2023-07-20T00:58:03;101572.03;;;17.45;100.00
77662;BME280;69666;52.136;5.424;2023-07-20T01:00:31;101579.38;;;17.42;100.00
77662;BME280;69666;52.136;5.424;2023-07-20T01:02:58;101572.38;;;17.39;100.00
77662;BME280;69666;52.136;5.424;2023-07-20T01:05:38;101577.16;;;17.33;100.00
77662;BME280;69666;52.136;5.424;2023-07-20T01:08:17;101580.97;;;17.29;100.00
77662;BME280;69666;52.136;5.424;2023-07-20T01:10:54;101581.19;;;17.24;100.00
77662;BME280;69666;52.136;5.424;2023-07-20T01:13:25;101584.13;;;17.20;100.00
77662;BME280;69666;52.136;5.424;2023-07-20T01:16:02;101584.34;;;17.15;100.00
77662;BME280;69666;52.136;5.424;2023-07-20T01:18:29;101585.44;;;17.11;100.00
77662;BME280;69666;52.136;5.424;2023-07-20T01:20:59;101585.69;;;17.06;100.00
77662;BME280;69666;52.136;5.424;2023-07-20T01:32:36;101582.56;;;16.78;100.00
77662;BME280;69666;52.136;5.424;2023-07-20T01:35:10;101586.44;;;16.72;100.00
77662;BME280;69666;52.136;5.424;2023-07-20T01:37:43;101590.19;;;16.68;100.00
77662;BME280;69666;52.136;5.424;2023-07-20T01:40:13;101585.06;;;16.64;100.00
77662;BME280;69666;52.136;5.424;2023-07-20T01:42:44;101587.19;;;16.56;100.00
77662;BME280;69666;52.136;5.424;2023-07-20T01:45:12;101591.84;;;16.52;100.00
77662;BME280;69666;52.136;5.424;2023-07-20T01:47:39;101581.31;;;16.48;100.00
77662;BME280;69666;52.136;5.424;2023-07-20T01:50:07;101578.84;;;16.43;100.00
77662;BME280;69666;52.136;5.424;2023-07-20T01:52:34;101579.13;;;16.37;100.00
77662;BME280;69666;52.136;5.424;2023-07-20T01:55:01;101585.66;;;16.31;100.00
77662;BME280;69666;52.136;5.424;2023-07-20T01:57:27;101599.22;;;16.28;100.00
77662;BME280;69666;52.136;5.424;2023-07-20T01:59:54;101595.84;;;16.23;100.00
77662;BME280;69666;52.136;5.424;2023-07-20T02:02:23;101600.56;;;16.18;100.00
77662;BME280;69666;52.136;5.424;2023-07-20T02:04:49;101599.91;;;16.13;100.00
77662;BME280;69666;52.136;5.424;2023-07-20T02:07:16;101596.50;;;16.10;100.00
77662;BME280;69666;52.136;5.424;2023-07-20T02:09:42;101593.00;;;16.08;100.00
77662;BME280;69666;52.136;5.424;2023-07-20T02:12:09;101594.00;;;16.05;100.00
77662;BME280;69666;52.136;5.424;2023-07-20T02:14:36;101598.63;;;16.01;100.00
77662;BME280;69666;52.136;5.424;2023-07-20T02:17:02;101599.59;;;16.00;100.00
77662;BME280;69666;52.136;5.424;2023-07-20T02:19:30;101596.03;;;16.00;100.00
77662;BME280;69666;52.136;5.424;2023-07-20T02:21:57;101593.34;;;16.00;100.00
77662;BME280;69666;52.136;5.424;2023-07-20T02:24:24;101598.56;;;16.03;100.00
77662;BME280;69666;52.136;5.424;2023-07-20T02:26:52;101600.31;;;16.04;100.00
77662;BME280;69666;52.136;5.424;2023-07-20T02:29:19;101594.88;;;16.05;100.00
77662;BME280;69666;52.136;5.424;2023-07-20T02:31:45;101598.50;;;16.04;100.00
77662;BME280;69666;52.136;5.424;2023-07-20T02:34:12;101595.94;;;16.01;100.00
77662;BME280;69666;52.136;5.424;2023-07-20T02:36:39;101601.47;;;15.98;100.00
77662;BME280;69666;52.136;5.424;2023-07-20T02:39:09;101596.22;;;15.95;100.00
77662;BME280;69666;52.136;5.424;2023-07-20T02:41:36;101597.28;;;15.91;100.00
77662;BME280;69666;52.136;5.424;2023-07-20T02:44:02;101596.63;;;15.86;100.00
77662;BME280;69666;52.136;5.424;2023-07-20T02:46:30;101593.34;;;15.80;100.00
77662;BME280;69666;52.136;5.424;2023-07-20T02:48:57;101589.88;;;15.78;100.00
77662;BME280;69666;52.136;5.424;2023-07-20T02:51:23;101601.66;;;15.74;100.00
77662;BME280;69666;52.136;5.424;2023-07-20T02:53:50;101599.16;;;15.69;100.00
77662;BME280;69666;52.136;5.424;2023-07-20T02:56:17;101603.00;;;15.63;100.00
77662;BME280;69666;52.136;5.424;2023-07-20T02:58:44;101604.88;;;15.61;100.00
77662;BME280;69666;52.136;5.424;2023-07-20T03:01:12;101605.16;;;15.55;100.00
77662;BME280;69666;52.136;5.424;2023-07-20T03:03:39;101613.28;;;15.52;100.00
77662;BME280;69666;52.136;5.424;2023-07-20T03:06:06;101617.00;;;15.48;100.00
77662;BME280;69666;52.136;5.424;2023-07-20T03:08:35;101618.97;;;15.45;100.00
77662;BME280;69666;52.136;5.424;2023-07-20T03:11:02;101625.44;;;15.39;100.00
77662;BME280;69666;52.136;5.424;2023-07-20T03:13:29;101626.53;;;15.35;100.00
77662;BME280;69666;52.136;5.424;2023-07-20T03:15:56;101629.38;;;15.30;100.00
77662;BME280;69666;52.136;5.424;2023-07-20T03:18:23;101637.56;;;15.27;100.00
77662;BME280;69666;52.136;5.424;2023-07-20T03:20:49;101635.94;;;15.23;100.00
77662;BME280;69666;52.136;5.424;2023-07-20T03:23:16;101639.56;;;15.22;100.00
77662;BME280;69666;52.136;5.424;2023-07-20T03:25:43;101639.63;;;15.21;100.00
77662;BME280;69666;52.136;5.424;2023-07-20T03:28:09;101637.94;;;15.18;100.00
77662;BME280;69666;52.136;5.424;2023-07-20T03:30:36;101640.66;;;15.17;100.00
77662;BME280;69666;52.136;5.424;2023-07-20T03:33:03;101633.63;;;15.14;100.00
77662;BME280;69666;52.136;5.424;2023-07-20T03:35:30;101634.50;;;15.15;100.00
77662;BME280;69666;52.136;5.424;2023-07-20T03:37:57;101635.44;;;15.14;100.00
77662;BME280;69666;52.136;5.424;2023-07-20T03:40:24;101633.81;;;15.10;100.00
77662;BME280;69666;52.136;5.424;2023-07-20T03:42:51;101635.72;;;15.06;100.00
77662;BME280;69666;52.136;5.424;2023-07-20T03:45:18;101636.72;;;15.04;100.00
77662;BME280;69666;52.136;5.424;2023-07-20T03:47:44;101649.34;;;15.02;100.00
77662;BME280;69666;52.136;5.424;2023-07-20T03:50:13;101643.16;;;15.00;100.00
77662;BME280;69666;52.136;5.424;2023-07-20T03:52:40;101640.59;;;14.96;100.00
77662;BME280;69666;52.136;5.424;2023-07-20T03:55:07;101642.44;;;14.94;100.00
77662;BME280;69666;52.136;5.424;2023-07-20T03:57:34;101647.97;;;14.91;100.00
77662;BME280;69666;52.136;5.424;2023-07-20T04:00:00;101643.63;;;14.87;100.00
77662;BME280;69666;52.136;5.424;2023-07-20T04:02:27;101637.47;;;14.85;100.00
77662;BME280;69666;52.136;5.424;2023-07-20T04:04:54;101639.25;;;14.85;100.00
77662;BME280;69666;52.136;5.424;2023-07-20T04:07:20;101636.63;;;14.83;100.00
77662;BME280;69666;52.136;5.424;2023-07-20T04:09:47;101647.34;;;14.83;100.00
77662;BME280;69666;52.136;5.424;2023-07-20T04:12:14;101647.41;;;14.82;100.00
77662;BME280;69666;52.136;5.424;2023-07-20T04:14:43;101659.81;;;14.84;100.00
77662;BME280;69666;52.136;5.424;2023-07-20T04:17:09;101663.31;;;14.86;100.00
77662;BME280;69666;52.136;5.424;2023-07-20T04:19:39;101659.66;;;14.89;100.00
77662;BME280;69666;52.136;5.424;2023-07-20T04:22:05;101663.03;;;14.94;100.00
77662;BME280;69666;52.136;5.424;2023-07-20T04:24:32;101661.91;;;15.00;100.00
77662;BME280;69666;52.136;5.424;2023-07-20T04:26:59;101666.22;;;15.04;100.00
77662;BME280;69666;52.136;5.424;2023-07-20T04:29:25;101665.13;;;15.09;100.00
77662;BME280;69666;52.136;5.424;2023-07-20T04:31:52;101676.59;;;15.13;100.00
77662;BME280;69666;52.136;5.424;2023-07-20T04:34:18;101664.84;;;15.15;100.00
77662;BME280;69666;52.136;5.424;2023-07-20T04:36:45;101664.84;;;15.15;100.00
77662;BME280;69666;52.136;5.424;2023-07-20T04:39:13;101663.09;;;15.14;100.00
77662;BME280;69666;52.136;5.424;2023-07-20T04:41:57;101671.16;;;15.14;100.00
77662;BME280;69666;52.136;5.424;2023-07-20T04:44:23;101677.47;;;15.13;100.00
77662;BME280;69666;52.136;5.424;2023-07-20T04:46:51;101683.81;;;15.11;100.00
77662;BME280;69666;52.136;5.424;2023-07-20T04:49:17;101685.63;;;15.10;100.00
77662;BME280;69666;52.136;5.424;2023-07-20T04:51:45;101683.00;;;15.09;100.00
77662;BME280;69666;52.136;5.424;2023-07-20T04:54:12;101682.19;;;15.07;100.00
77662;BME280;69666;52.136;5.424;2023-07-20T04:56:39;101683.94;;;15.08;100.00
77662;BME280;69666;52.136;5.424;2023-07-20T04:59:06;101675.91;;;15.08;100.00
77662;BME280;69666;52.136;5.424;2023-07-20T05:01:33;101678.56;;;15.08;100.00
77662;BME280;69666;52.136;5.424;2023-07-20T05:04:00;101675.03;;;15.07;100.00
77662;BME280;69666;52.136;5.424;2023-07-20T05:06:26;101674.19;;;15.05;100.00
77662;BME280;69666;52.136;5.424;2023-07-20T05:08:53;101676.81;;;15.07;100.00
77662;BME280;69666;52.136;5.424;2023-07-20T05:11:19;101678.47;;;15.11;100.00
77662;BME280;69666;52.136;5.424;2023-07-20T05:13:46;101682.94;;;15.10;100.00
77662;BME280;69666;52.136;5.424;2023-07-20T05:16:13;101678.41;;;15.12;100.00
77662;BME280;69666;52.136;5.424;2023-07-20T05:18:39;101683.63;;;15.15;100.00
77662;BME280;69666;52.136;5.424;2023-07-20T05:21:06;101688.81;;;15.20;100.00
77662;BME280;69666;52.136;5.424;2023-07-20T05:23:33;101680.66;;;15.23;100.00
77662;BME280;69666;52.136;5.424;2023-07-20T05:26:00;101674.16;;;15.28;100.00
77662;BME280;69666;52.136;5.424;2023-07-20T05:28:26;101671.31;;;15.33;100.00
77662;BME280;69666;52.136;5.424;2023-07-20T05:30:53;101680.03;;;15.38;100.00
77662;BME280;69666;52.136;5.424;2023-07-20T05:33:21;101678.97;;;15.42;100.00
77662;BME280;69666;52.136;5.424;2023-07-20T05:35:48;101679.75;;;15.46;100.00
77662;BME280;69666;52.136;5.424;2023-07-20T05:38:14;101681.28;;;15.51;100.00
77662;BME280;69666;52.136;5.424;2023-07-20T05:40:41;101688.31;;;15.55;100.00
77662;BME280;69666;52.136;5.424;2023-07-20T05:43:10;101687.22;;;15.59;100.00
77662;BME280;69666;52.136;5.424;2023-07-20T05:45:37;101687.88;;;15.66;100.00
77662;BME280;69666;52.136;5.424;2023-07-20T05:48:04;101677.69;;;15.74;100.00
77662;BME280;69666;52.136;5.424;2023-07-20T05:50:31;101674.81;;;15.79;100.00
77662;BME280;69666;52.136;5.424;2023-07-20T05:52:57;101677.22;;;15.85;100.00
77662;BME280;69666;52.136;5.424;2023-07-20T05:55:24;101679.44;;;15.95;100.00
77662;BME280;69666;52.136;5.424;2023-07-20T05:57:51;101677.94;;;16.10;100.00
77662;BME280;69666;52.136;5.424;2023-07-20T06:00:18;101677.97;;;16.29;100.00
77662;BME280;69666;52.136;5.424;2023-07-20T06:02:46;101679.72;;;16.50;100.00
77662;BME280;69666;52.136;5.424;2023-07-20T06:05:14;101684.34;;;16.67;100.00
77662;BME280;69666;52.136;5.424;2023-07-20T06:07:41;101688.22;;;16.80;100.00
77662;BME280;69666;52.136;5.424;2023-07-20T06:10:08;101686.25;;;17.02;100.00
77662;BME280;69666;52.136;5.424;2023-07-20T06:12:35;101691.56;;;17.23;100.00
77662;BME280;69666;52.136;5.424;2023-07-20T06:15:03;101685.53;;;17.36;100.00
77662;BME280;69666;52.136;5.424;2023-07-20T06:17:31;101690.25;;;17.50;100.00
77662;BME280;69666;52.136;5.424;2023-07-20T06:19:58;101692.34;;;17.62;100.00
77662;BME280;69666;52.136;5.424;2023-07-20T06:22:24;101696.56;;;17.68;100.00
77662;BME280;69666;52.136;5.424;2023-07-20T06:24:51;101695.41;;;17.73;100.00
77662;BME280;69666;52.136;5.424;2023-07-20T06:27:18;101700.38;;;17.81;100.00
77662;BME280;69666;52.136;5.424;2023-07-20T06:29:44;101691.69;;;17.93;100.00
77662;BME280;69666;52.136;5.424;2023-07-20T06:32:11;101696.44;;;18.05;100.00
77662;BME280;69666;52.136;5.424;2023-07-20T06:34:38;101692.22;;;18.34;100.00
77662;BME280;69666;52.136;5.424;2023-07-20T06:37:04;101697.13;;;18.60;100.00
77662;BME280;69666;52.136;5.424;2023-07-20T06:39:31;101695.88;;;18.83;99.70
77662;BME280;69666;52.136;5.424;2023-07-20T06:42:00;101696.94;;;18.81;100.00
77662;BME280;69666;52.136;5.424;2023-07-20T06:44:27;101698.84;;;18.94;100.00
77662;BME280;69666;52.136;5.424;2023-07-20T06:46:54;101703.72;;;18.88;99.28
77662;BME280;69666;52.136;5.424;2023-07-20T06:49:27;101704.56;;;18.73;97.89
77662;BME280;69666;52.136;5.424;2023-07-20T06:51:54;101713.16;;;18.64;97.96
77662;BME280;69666;52.136;5.424;2023-07-20T06:54:21;101716.19;;;18.57;99.25
77662;BME280;69666;52.136;5.424;2023-07-20T06:56:50;101711.66;;;18.58;99.86
77662;BME280;69666;52.136;5.424;2023-07-20T06:59:36;101711.88;;;18.53;99.25
77662;BME280;69666;52.136;5.424;2023-07-20T07:02:07;101712.13;;;18.49;99.49
77662;BME280;69666;52.136;5.424;2023-07-20T07:04:40;101713.22;;;18.45;99.87
77662;BME280;69666;52.136;5.424;2023-07-20T07:07:08;101709.81;;;18.41;100.00
77662;BME280;69666;52.136;5.424;2023-07-20T07:09:35;101719.78;;;18.39;96.90
77662;BME280;69666;52.136;5.424;2023-07-20T07:12:03;101719.03;;;18.37;97.07
77662;BME280;69666;52.136;5.424;2023-07-20T07:14:30;101715.38;;;18.38;96.39
77662;BME280;69666;52.136;5.424;2023-07-20T07:16:58;101713.31;;;18.43;97.97
77662;BME280;69666;52.136;5.424;2023-07-20T07:19:30;101716.72;;;18.47;96.38
77662;BME280;69666;52.136;5.424;2023-07-20T07:21:57;101711.06;;;18.51;96.39
77662;BME280;69666;52.136;5.424;2023-07-20T07:24:26;101707.59;;;19.00;100.00
77662;BME280;69666;52.136;5.424;2023-07-20T07:26:55;101704.41;;;19.24;97.69
77662;BME280;69666;52.136;5.424;2023-07-20T07:29:21;101706.97;;;19.26;96.17
77662;BME280;69666;52.136;5.424;2023-07-20T07:31:48;101712.56;;;19.23;95.29
77662;BME280;69666;52.136;5.424;2023-07-20T07:34:15;101715.53;;;19.18;93.84
77662;BME280;69666;52.136;5.424;2023-07-20T07:36:41;101712.97;;;19.15;95.21
77662;BME280;69666;52.136;5.424;2023-07-20T07:39:08;101717.00;;;19.08;95.50
77662;BME280;69666;52.136;5.424;2023-07-20T07:41:38;101718.81;;;19.08;94.39
77662;BME280;69666;52.136;5.424;2023-07-20T07:44:05;101722.81;;;19.01;94.06
77662;BME280;69666;52.136;5.424;2023-07-20T07:46:32;101720.19;;;18.99;93.89
77662;BME280;69666;52.136;5.424;2023-07-20T07:48:59;101721.22;;;19.77;91.96
77662;BME280;69666;52.136;5.424;2023-07-20T07:51:25;101721.19;;;20.52;89.25
77662;BME280;69666;52.136;5.424;2023-07-20T07:53:53;101715.22;;;21.04;87.46
77662;BME280;69666;52.136;5.424;2023-07-20T07:56:20;101713.63;;;21.42;86.78
77662;BME280;69666;52.136;5.424;2023-07-20T07:58:50;101708.44;;;21.66;85.22
77662;BME280;69666;52.136;5.424;2023-07-20T08:01:18;101712.59;;;21.99;85.15
77662;BME280;69666;52.136;5.424;2023-07-20T08:03:49;101718.97;;;22.25;81.46
77662;BME280;69666;52.136;5.424;2023-07-20T08:06:16;101715.44;;;22.49;80.23
77662;BME280;69666;52.136;5.424;2023-07-20T08:08:43;101705.47;;;22.75;78.33
77662;BME280;69666;52.136;5.424;2023-07-20T08:11:10;101701.31;;;22.82;78.94
77662;BME280;69666;52.136;5.424;2023-07-20T08:13:38;101704.78;;;23.10;75.45
77662;BME280;69666;52.136;5.424;2023-07-20T08:16:04;101700.44;;;23.44;76.60
77662;BME280;69666;52.136;5.424;2023-07-20T08:18:31;101696.81;;;23.69;74.67
77662;BME280;69666;52.136;5.424;2023-07-20T08:20:58;101695.91;;;23.92;74.05
77662;BME280;69666;52.136;5.424;2023-07-20T08:23:24;101689.06;;;24.10;72.61
77662;BME280;69666;52.136;5.424;2023-07-20T08:25:51;101698.25;;;24.20;69.69
77662;BME280;69666;52.136;5.424;2023-07-20T08:28:18;101695.09;;;24.37;67.44
77662;BME280;69666;52.136;5.424;2023-07-20T08:30:47;101696.13;;;24.59;68.93
77662;BME280;69666;52.136;5.424;2023-07-20T08:33:16;101698.53;;;24.86;68.37
77662;BME280;69666;52.136;5.424;2023-07-20T08:35:43;101700.66;;;25.16;66.46
77662;BME280;69666;52.136;5.424;2023-07-20T08:38:10;101693.97;;;25.08;61.71
77662;BME280;69666;52.136;5.424;2023-07-20T08:40:41;101699.41;;;25.31;62.06
77662;BME280;69666;52.136;5.424;2023-07-20T08:43:10;101709.25;;;25.54;62.01
77662;BME280;69666;52.136;5.424;2023-07-20T08:45:39;101707.94;;;25.37;58.52
77662;BME280;69666;52.136;5.424;2023-07-20T08:48:07;101704.59;;;25.12;58.30
77662;BME280;69666;52.136;5.424;2023-07-20T08:50:35;101706.97;;;24.94;58.44
77662;BME280;69666;52.136;5.424;2023-07-20T08:53:02;101707.44;;;24.99;61.65
77662;BME280;69666;52.136;5.424;2023-07-20T08:55:30;101711.03;;;25.22;62.88
77662;BME280;69666;52.136;5.424;2023-07-20T08:57:58;101708.16;;;25.45;58.87
77662;BME280;69666;52.136;5.424;2023-07-20T09:00:26;101698.63;;;25.62;58.89
77662;BME280;69666;52.136;5.424;2023-07-20T09:02:54;101703.69;;;25.99;60.56
77662;BME280;69666;52.136;5.424;2023-07-20T09:05:23;101701.28;;;26.37;58.56
77662;BME280;69666;52.136;5.424;2023-07-20T09:07:52;101707.06;;;26.65;57.31
77662;BME280;69666;52.136;5.424;2023-07-20T09:10:24;101695.56;;;26.92;56.57
77662;BME280;69666;52.136;5.424;2023-07-20T09:12:51;101690.91;;;27.03;56.66
77662;BME280;69666;52.136;5.424;2023-07-20T09:15:20;101697.31;;;27.33;52.66
77662;BME280;69666;52.136;5.424;2023-07-20T09:17:48;101696.31;;;27.34;51.59
77662;BME280;69666;52.136;5.424;2023-07-20T09:20:17;101691.25;;;27.19;52.32
77662;BME280;69666;52.136;5.424;2023-07-20T09:22:51;101694.22;;;26.86;52.34
77662;BME280;69666;52.136;5.424;2023-07-20T09:25:23;101695.38;;;26.21;50.67
77662;BME280;69666;52.136;5.424;2023-07-20T09:27:53;101698.09;;;25.68;51.14
77662;BME280;69666;52.136;5.424;2023-07-20T09:30:25;101701.88;;;25.12;52.16
77662;BME280;69666;52.136;5.424;2023-07-20T09:32:58;101703.31;;;24.60;55.91
77662;BME280;69666;52.136;5.424;2023-07-20T09:35:25;101702.56;;;24.58;55.79
77662;BME280;69666;52.136;5.424;2023-07-20T09:38:01;101697.19;;;25.14;56.48
77662;BME280;69666;52.136;5.424;2023-07-20T09:40:30;101699.66;;;25.28;54.50
77662;BME280;69666;52.136;5.424;2023-07-20T09:43:08;101694.16;;;25.50;51.22
77662;BME280;69666;52.136;5.424;2023-07-20T09:45:42;101692.75;;;25.99;53.48
77662;BME280;69666;52.136;5.424;2023-07-20T09:48:12;101688.69;;;26.46;52.23
77662;BME280;69666;52.136;5.424;2023-07-20T09:50:51;101689.50;;;26.88;50.13
77662;BME280;69666;52.136;5.424;2023-07-20T09:53:19;101681.13;;;27.10;48.93
77662;BME280;69666;52.136;5.424;2023-07-20T09:55:49;101680.56;;;27.56;53.06
77662;BME280;69666;52.136;5.424;2023-07-20T09:58:16;101681.31;;;27.97;49.46
77662;BME280;69666;52.136;5.424;2023-07-20T10:00:45;101673.56;;;28.21;48.64
77662;BME280;69666;52.136;5.424;2023-07-20T10:03:22;101679.41;;;28.46;47.07
77662;BME280;69666;52.136;5.424;2023-07-20T10:05:58;101680.38;;;28.64;48.59
77662;BME280;69666;52.136;5.424;2023-07-20T10:08:29;101674.53;;;28.40;46.05
77662;BME280;69666;52.136;5.424;2023-07-20T10:11:02;101675.25;;;27.84;43.64
77662;BME280;69666;52.136;5.424;2023-07-20T10:13:29;101669.59;;;27.47;44.45
77662;BME280;69666;52.136;5.424;2023-07-20T10:16:07;101669.44;;;26.99;47.03
77662;BME280;69666;52.136;5.424;2023-07-20T10:18:58;101672.16;;;26.27;45.80
77662;BME280;69666;52.136;5.424;2023-07-20T10:24:10;101680.19;;;25.21;46.96
77662;BME280;69666;52.136;5.424;2023-07-20T10:26:38;101675.97;;;25.28;49.06
77662;BME280;69666;52.136;5.424;2023-07-20T10:29:08;101673.56;;;25.57;50.30
77662;BME280;69666;52.136;5.424;2023-07-20T10:31:37;101675.50;;;25.77;45.73
77662;BME280;69666;52.136;5.424;2023-07-20T10:34:05;101658.94;;;25.90;47.33
77662;BME280;69666;52.136;5.424;2023-07-20T10:36:32;101656.56;;;25.97;45.17
77662;BME280;69666;52.136;5.424;2023-07-20T10:39:01;101671.41;;;25.83;46.58
77662;BME280;69666;52.136;5.424;2023-07-20T10:41:35;101667.13;;;25.90;44.13
77662;BME280;69666;52.136;5.424;2023-07-20T10:44:07;101669.28;;;25.75;46.92
77662;BME280;69666;52.136;5.424;2023-07-20T10:49:09;101658.97;;;26.11;53.37
77662;BME280;69666;52.136;5.424;2023-07-20T10:51:46;101658.00;;;26.33;48.04
77662;BME280;69666;52.136;5.424;2023-07-20T10:56:47;101649.38;;;26.88;44.53
77662;BME280;69666;52.136;5.424;2023-07-20T10:59:37;101647.97;;;27.24;43.41
77662;BME280;69666;52.136;5.424;2023-07-20T11:02:08;101642.53;;;27.53;43.79
77662;BME280;69666;52.136;5.424;2023-07-20T11:04:42;101651.34;;;27.86;42.97
77662;BME280;69666;52.136;5.424;2023-07-20T11:07:09;101643.13;;;28.05;42.14
77662;BME280;69666;52.136;5.424;2023-07-20T11:09:38;101643.97;;;28.34;47.97
77662;BME280;69666;52.136;5.424;2023-07-20T11:12:17;101641.63;;;28.49;44.14
77662;BME280;69666;52.136;5.424;2023-07-20T11:14:56;101642.88;;;28.64;44.63
77662;BME280;69666;52.136;5.424;2023-07-20T11:17:32;101641.53;;;28.78;41.65
77662;BME280;69666;52.136;5.424;2023-07-20T11:20:01;101641.69;;;28.67;41.68
77662;BME280;69666;52.136;5.424;2023-07-20T11:22:31;101635.56;;;28.55;40.00
77662;BME280;69666;52.136;5.424;2023-07-20T11:24:58;101638.22;;;28.28;41.26
77662;BME280;69666;52.136;5.424;2023-07-20T11:27:25;101634.50;;;28.10;44.00
77662;BME280;69666;52.136;5.424;2023-07-20T11:29:52;101628.47;;;27.87;42.67
77662;BME280;69666;52.136;5.424;2023-07-20T11:32:23;101631.91;;;27.60;42.98
77662;BME280;69666;52.136;5.424;2023-07-20T11:34:50;101622.78;;;27.31;39.48
77662;BME280;69666;52.136;5.424;2023-07-20T11:37:17;101627.66;;;27.27;42.94
77662;BME280;69666;52.136;5.424;2023-07-20T11:39:45;101620.03;;;27.21;43.41
77662;BME280;69666;52.136;5.424;2023-07-20T11:42:12;101622.59;;;27.03;41.56
77662;BME280;69666;52.136;5.424;2023-07-20T11:44:39;101625.31;;;27.03;43.09
77662;BME280;69666;52.136;5.424;2023-07-20T11:47:10;101615.00;;;26.86;42.92
77662;BME280;69666;52.136;5.424;2023-07-20T11:49:42;101614.50;;;26.92;42.51
77662;BME280;69666;52.136;5.424;2023-07-20T11:52:11;101617.28;;;27.11;42.37
77662;BME280;69666;52.136;5.424;2023-07-20T11:54:41;101615.97;;;27.15;40.73
77662;BME280;69666;52.136;5.424;2023-07-20T11:57:18;101610.50;;;27.15;41.82
77662;BME280;69666;52.136;5.424;2023-07-20T11:59:56;101616.69;;;27.08;43.13
77662;BME280;69666;52.136;5.424;2023-07-20T12:02:27;101614.50;;;27.02;42.59
77662;BME280;69666;52.136;5.424;2023-07-20T12:04:55;101611.34;;;27.06;43.48
77662;BME280;69666;52.136;5.424;2023-07-20T12:07:22;101601.41;;;27.05;42.98
77662;BME280;69666;52.136;5.424;2023-07-20T12:10:05;101600.94;;;26.90;41.81
77662;BME280;69666;52.136;5.424;2023-07-20T12:12:33;101604.91;;;26.77;39.94
77662;BME280;69666;52.136;5.424;2023-07-20T12:15:17;101606.63;;;26.78;43.31
77662;BME280;69666;52.136;5.424;2023-07-20T12:17:51;101590.38;;;26.76;40.82
77662;BME280;69666;52.136;5.424;2023-07-20T12:22:52;101593.94;;;26.98;43.91
77662;BME280;69666;52.136;5.424;2023-07-20T12:25:18;101598.59;;;26.86;43.23
77662;BME280;69666;52.136;5.424;2023-07-20T12:27:48;101591.66;;;26.72;41.87
77662;BME280;69666;52.136;5.424;2023-07-20T12:30:15;101599.13;;;26.40;40.80
77662;BME280;69666;52.136;5.424;2023-07-20T12:32:41;101592.41;;;26.02;42.72
77662;BME280;69666;52.136;5.424;2023-07-20T12:35:08;101599.31;;;25.65;43.53
77662;BME280;69666;52.136;5.424;2023-07-20T12:37:35;101606.66;;;25.42;43.90
77662;BME280;69666;52.136;5.424;2023-07-20T12:40:02;101593.63;;;25.14;44.06
77662;BME280;69666;52.136;5.424;2023-07-20T12:42:30;101592.91;;;25.00;47.72
77662;BME280;69666;52.136;5.424;2023-07-20T12:44:56;101598.13;;;25.03;45.75
77662;BME280;69666;52.136;5.424;2023-07-20T12:47:23;101598.75;;;24.96;46.16
77662;BME280;69666;52.136;5.424;2023-07-20T12:49:49;101601.81;;;24.91;47.78
77662;BME280;69666;52.136;5.424;2023-07-20T12:52:16;101602.69;;;24.81;47.55
77662;BME280;69666;52.136;5.424;2023-07-20T12:54:43;101596.91;;;24.74;47.53
77662;BME280;69666;52.136;5.424;2023-07-20T12:57:10;101593.06;;;24.65;48.82
77662;BME280;69666;52.136;5.424;2023-07-20T12:59:38;101599.00;;;24.59;49.19
77662;BME280;69666;52.136;5.424;2023-07-20T13:02:05;101596.38;;;24.47;48.76
77662;BME280;69666;52.136;5.424;2023-07-20T13:04:32;101602.69;;;24.36;47.82
77662;BME280;69666;52.136;5.424;2023-07-20T13:06:59;101604.19;;;24.40;50.64
77662;BME280;69666;52.136;5.424;2023-07-20T13:09:26;101585.03;;;24.42;49.52
77662;BME280;69666;52.136;5.424;2023-07-20T13:11:53;101591.94;;;24.46;50.96